Tio Pujio, Argentina
Current Conditions -  °F | °C
As of 2:00 AM on Saturday 20 Dec 2014 (Local Time) from SAOC Reporting Station
Few Clouds Few Clouds  
Wind Chill: 24°   Ceiling: Unl
Heat Index: 24°   Visibility: 6mi
Dew Point: 14°   Wind: 16mph
Humidity: 53%   Direction: 360°N
Pressure: 59.03"   Gusts: NA
Location:  32.28°S, 63.37°W
Report Text: SAOC 200500Z 36014KT 9999 FEW044 FEW04524/14 Q1999
Loading
Personal Weather Stations






























Interactive Weather Map New forecast layout! Learn more

10-Day Weather Forecast

Advertisements
Track Severe Weather on mobile